Time;durP1;ratioP1;P1;durP2;ratioP2;P2;SDS_P1;SDS_P2;PMS_P1;PMS_P2;Temp;Humidity;BMP_temperature;BMP_pressure;BME280_temperature;BME280_humidity;BME280_pressure;Samples;Min_cycle;Max_cycle;Signal;HPM_P1;HPM_P2
2021/04/24 00:00:14;;;;;;;10.77;7.97;;;;;;;8.01;59.61;102575.97;6160965;28;20284;-52
2021/04/24 00:03:35;;;;;;;12.27;8.77;;;;;;;8.05;59.71;102577.81;6161642;28;20637;-53
2021/04/24 00:06:57;;;;;;;9.97;7.97;;;;;;;8.18;59.09;102573.88;6159267;28;20234;-49
2021/04/24 00:10:19;;;;;;;13.33;9.20;;;;;;;8.04;59.93;102580.38;6155266;28;20243;-54
2021/04/24 00:13:40;;;;;;;15.40;9.40;;;;;;;8.07;59.65;102576.16;6159332;28;20238;-49
2021/04/24 00:17:00;;;;;;;14.43;8.87;;;;;;;8.22;58.90;102577.41;6151085;28;20231;-52
2021/04/24 00:20:23;;;;;;;12.13;7.83;;;;;;;8.22;58.63;102574.81;6163616;28;20507;-51
2021/04/24 00:23:44;;;;;;;11.50;8.43;;;;;;;8.16;59.22;102574.66;6160721;28;20391;-51
2021/04/24 00:27:05;;;;;;;15.40;8.83;;;;;;;8.13;59.64;102570.25;6159205;28;20497;-52
2021/04/24 00:30:25;;;;;;;11.00;8.20;;;;;;;8.00;59.85;102569.00;6145650;28;20238;-53
2021/04/24 00:33:46;;;;;;;10.70;7.70;;;;;;;7.95;60.14;102564.53;6155923;28;20253;-54
2021/04/24 00:37:06;;;;;;;10.53;7.83;;;;;;;7.98;59.82;102568.09;6151432;28;20721;-51
2021/04/24 00:40:28;;;;;;;10.10;8.07;;;;;;;7.94;60.37;102568.84;6158106;28;20227;-50
2021/04/24 00:43:48;;;;;;;14.67;7.50;;;;;;;8.12;59.49;102557.25;6173141;28;20231;-52
2021/04/24 00:47:09;;;;;;;12.93;6.97;;;;;;;7.72;60.92;102577.69;6163519;28;20950;-54
2021/04/24 00:50:31;;;;;;;9.80;6.93;;;;;;;7.53;61.75;102565.88;6154221;28;20234;-49
2021/04/24 00:53:52;;;;;;;11.80;7.00;;;;;;;7.74;61.15;102567.38;6157458;28;20786;-49
2021/04/24 00:57:15;;;;;;;8.63;7.07;;;;;;;7.71;61.25;102575.91;6160042;28;20235;-53
2021/04/24 01:00:36;;;;;;;9.43;7.40;;;;;;;7.67;61.36;102563.69;6157599;28;20234;-52
2021/04/24 01:03:57;;;;;;;8.27;6.97;;;;;;;7.52;62.09;102566.69;6156007;28;20222;-53
2021/04/24 01:07:17;;;;;;;8.53;5.97;;;;;;;7.62;61.86;102566.16;6161212;28;20525;-50
2021/04/24 01:10:39;;;;;;;12.63;7.20;;;;;;;7.65;61.77;102568.84;6159494;28;20238;-50
2021/04/24 01:14:01;;;;;;;9.43;7.13;;;;;;;7.66;61.69;102568.00;6160167;28;20496;-51
2021/04/24 01:17:21;;;;;;;9.20;7.23;;;;;;;7.56;62.29;102568.56;6158415;28;20234;-53
2021/04/24 01:20:42;;;;;;;12.30;7.70;;;;;;;7.72;61.80;102566.44;6155215;28;20245;-53
2021/04/24 01:24:05;;;;;;;13.20;8.20;;;;;;;7.68;61.85;102561.16;6148189;28;20239;-51
2021/04/24 01:27:26;;;;;;;11.33;7.27;;;;;;;7.44;62.70;102563.88;6163429;28;20869;-52
2021/04/24 01:30:47;;;;;;;9.60;6.40;;;;;;;7.42;62.71;102564.63;6156427;28;20270;-51
2021/04/24 01:34:08;;;;;;;9.57;6.70;;;;;;;7.59;62.12;102560.88;6147239;28;20266;-51
2021/04/24 01:37:29;;;;;;;8.13;6.10;;;;;;;7.69;61.98;102557.72;6153958;28;20267;-51
2021/04/24 01:40:50;;;;;;;10.53;6.90;;;;;;;7.73;61.97;102555.22;6160003;28;20230;-51
2021/04/24 01:44:11;;;;;;;12.97;7.40;;;;;;;7.70;61.98;102548.25;6156775;28;20231;-49
2021/04/24 01:47:31;;;;;;;8.37;6.77;;;;;;;7.85;61.78;102542.63;6155070;28;20242;-49
2021/04/24 01:50:52;;;;;;;17.30;8.57;;;;;;;7.92;61.53;102549.75;6157418;28;20238;-49
2021/04/24 01:54:12;;;;;;;10.20;6.43;;;;;;;7.92;61.77;102549.75;6160791;28;20612;-47
2021/04/24 01:57:33;;;;;;;8.50;6.17;;;;;;;7.97;61.34;102548.19;6164411;28;20242;-51
2021/04/24 02:01:00;;;;;;;10.97;6.83;;;;;;;7.80;62.13;102544.22;6158274;28;20230;-50
2021/04/24 02:04:23;;;;;;;9.00;6.63;;;;;;;7.88;61.98;102550.50;6165035;28;20242;-52
2021/04/24 02:07:54;;;;;;;8.93;6.70;;;;;;;7.55;63.31;102545.19;6163049;28;20620;-49
2021/04/24 02:11:14;;;;;;;10.37;7.37;;;;;;;7.79;62.60;102542.44;6164719;28;20601;-48
2021/04/24 02:14:41;;;;;;;14.43;8.60;;;;;;;8.01;61.80;102538.78;6166313;28;20380;-52
2021/04/24 02:18:08;;;;;;;10.97;7.57;;;;;;;7.89;62.24;102529.81;6160478;28;20239;-49
2021/04/24 02:21:29;;;;;;;10.00;7.97;;;;;;;7.80;62.55;102526.06;6163762;28;20222;-50
2021/04/24 02:24:51;;;;;;;12.93;7.20;;;;;;;7.70;63.08;102532.69;6164815;28;20242;-51
2021/04/24 02:28:13;;;;;;;10.63;7.97;;;;;;;7.85;62.53;102529.66;6160641;28;20234;-50
2021/04/24 02:31:34;;;;;;;15.30;9.90;;;;;;;7.62;63.00;102524.69;6163961;28;20637;-51
2021/04/24 02:34:55;;;;;;;13.53;7.40;;;;;;;7.87;62.19;102522.78;6164231;28;20261;-49
2021/04/24 02:38:19;;;;;;;11.73;6.83;;;;;;;7.68;62.96;102519.66;6162425;28;20241;-51
2021/04/24 02:41:39;;;;;;;11.70;6.57;;;;;;;7.49;63.58;102520.81;6167217;28;20519;-55
2021/04/24 02:45:05;;;;;;;9.90;6.70;;;;;;;7.48;63.59;102529.44;6161520;28;20227;-48
2021/04/24 02:48:26;;;;;;;9.67;6.80;;;;;;;6.69;66.40;102514.78;6156783;28;20323;-51
2021/04/24 02:51:46;;;;;;;8.67;6.87;;;;;;;6.96;65.51;102526.88;6161904;28;20238;-49
2021/04/24 02:55:08;;;;;;;11.30;6.77;;;;;;;6.98;65.46;102522.63;6150364;28;20230;-54
2021/04/24 02:58:29;;;;;;;10.53;6.90;;;;;;;7.12;65.18;102526.56;6163555;28;20234;-50
2021/04/24 03:01:50;;;;;;;14.27;8.20;;;;;;;6.57;67.09;102524.69;6163990;28;20511;-49
2021/04/24 03:05:15;;;;;;;13.03;7.97;;;;;;;6.83;66.38;102517.81;6163465;28;20825;-50
2021/04/24 03:08:35;;;;;;;9.80;7.67;;;;;;;7.13;64.66;102519.66;6167210;28;20275;-53
2021/04/24 03:11:56;;;;;;;13.30;7.87;;;;;;;7.24;64.38;102518.28;6157425;28;20230;-50
2021/04/24 03:15:16;;;;;;;12.40;7.93;;;;;;;7.10;65.26;102517.84;6159829;28;20620;-51
2021/04/24 03:18:37;;;;;;;13.77;7.37;;;;;;;7.15;64.73;102521.44;6175083;28;20572;-55
2021/04/24 03:21:58;;;;;;;10.83;6.83;;;;;;;6.98;65.60;102525.19;6158787;28;20242;-53
2021/04/24 03:25:19;;;;;;;15.80;8.87;;;;;;;7.03;64.96;102514.16;6157592;28;20565;-53
2021/04/24 03:28:40;;;;;;;13.23;7.80;;;;;;;6.72;66.59;102514.84;6160932;28;22223;-53
2021/04/24 03:32:01;;;;;;;14.90;8.40;;;;;;;7.26;64.66;102517.50;6160559;28;20628;-52
2021/04/24 03:35:21;;;;;;;11.70;7.63;;;;;;;7.43;63.82;102524.94;6156251;28;21755;-50
2021/04/24 03:38:43;;;;;;;13.77;7.63;;;;;;;7.54;63.86;102513.19;6164373;28;20238;-52
2021/04/24 03:42:03;;;;;;;14.23;8.00;;;;;;;7.74;62.70;102515.50;6159831;28;20242;-50
2021/04/24 03:45:24;;;;;;;11.67;7.10;;;;;;;7.70;62.99;102511.94;6162451;28;20234;-51
2021/04/24 03:48:45;;;;;;;9.00;6.93;;;;;;;7.47;63.26;102508.66;6166922;28;20231;-53
2021/04/24 03:52:06;;;;;;;11.70;6.53;;;;;;;7.51;63.33;102515.69;6154170;28;20242;-54
2021/04/24 03:55:27;;;;;;;9.40;6.47;;;;;;;7.59;62.41;102521.97;6159201;28;20282;-51
2021/04/24 03:58:48;;;;;;;10.93;6.03;;;;;;;7.39;63.09;102530.88;6162051;28;20595;-52
2021/04/24 04:02:08;;;;;;;8.90;6.20;;;;;;;7.30;63.15;102537.50;6158137;28;20640;-52
2021/04/24 04:05:30;;;;;;;8.27;6.10;;;;;;;7.24;63.28;102534.72;6161119;28;20222;-52
2021/04/24 04:08:50;;;;;;;19.63;7.57;;;;;;;7.28;63.33;102539.16;6162900;28;20222;-50
2021/04/24 04:12:12;;;;;;;11.67;6.47;;;;;;;7.46;62.66;102532.78;6160816;28;20559;-49
2021/04/24 04:15:33;;;;;;;11.03;5.93;;;;;;;7.40;62.80;102530.00;6157587;28;20234;-47
2021/04/24 04:18:54;;;;;;;10.60;6.73;;;;;;;7.57;62.49;102541.78;6159689;28;20238;-53
2021/04/24 04:22:15;;;;;;;15.53;6.27;;;;;;;7.60;62.13;102541.91;6158763;28;20264;-54
2021/04/24 04:25:35;;;;;;;11.27;6.20;;;;;;;8.00;60.58;102535.28;6157326;28;20227;-53
2021/04/24 04:28:57;;;;;;;9.17;6.80;;;;;;;7.76;61.31;102538.06;6158491;28;20321;-49
2021/04/24 04:32:17;;;;;;;11.90;7.50;;;;;;;7.89;60.87;102540.19;6158499;28;20226;-51
2021/04/24 04:35:39;;;;;;;8.93;5.70;;;;;;;7.89;60.55;102536.72;6154636;28;20600;-50
2021/04/24 04:39:00;;;;;;;11.77;7.47;;;;;;;7.96;60.42;102541.22;6160851;28;20231;-50
2021/04/24 04:42:20;;;;;;;9.90;6.70;;;;;;;7.77;60.83;102539.78;6158045;28;20230;-51
2021/04/24 04:45:42;;;;;;;8.83;5.57;;;;;;;7.99;60.55;102543.91;6161344;28;20254;-52
2021/04/24 04:49:03;;;;;;;12.00;7.27;;;;;;;8.11;59.44;102546.00;6158990;28;20321;-52
2021/04/24 04:52:23;;;;;;;13.50;6.77;;;;;;;7.97;59.71;102531.72;6158453;28;20708;-53
2021/04/24 04:55:44;;;;;;;7.20;5.73;;;;;;;7.86;59.82;102534.88;6156995;28;20226;-55
2021/04/24 04:59:04;;;;;;;13.00;6.03;;;;;;;8.01;59.05;102539.66;6160759;28;20239;-52
2021/04/24 05:02:25;;;;;;;9.63;5.70;;;;;;;8.29;58.25;102536.09;6158924;28;20262;-50
2021/04/24 05:05:46;;;;;;;7.67;5.60;;;;;;;8.03;58.54;102540.56;6160226;28;20234;-50
2021/04/24 05:09:06;;;;;;;10.73;6.00;;;;;;;8.07;58.52;102534.63;6158958;28;20226;-52
2021/04/24 05:12:27;;;;;;;9.97;5.60;;;;;;;7.74;59.06;102529.34;6146357;28;20226;-53
2021/04/24 05:15:47;;;;;;;9.77;5.10;;;;;;;7.84;58.79;102530.50;6156388;28;20297;-49
2021/04/24 05:19:08;;;;;;;10.27;5.77;;;;;;;7.94;58.28;102532.53;6148790;28;20231;-53
2021/04/24 05:22:29;;;;;;;11.80;5.27;;;;;;;7.91;58.33;102532.44;6155701;28;20245;-55
2021/04/24 05:25:49;;;;;;;11.53;5.80;;;;;;;8.14;57.76;102542.59;6151774;28;20489;-51
2021/04/24 05:29:11;;;;;;;9.33;4.90;;;;;;;7.81;58.77;102536.47;6153750;28;20234;-49
2021/04/24 05:32:31;;;;;;;14.17;6.43;;;;;;;8.00;58.12;102537.88;6159277;28;20325;-51
2021/04/24 05:35:53;;;;;;;11.23;4.60;;;;;;;7.97;58.02;102537.81;6155250;28;20237;-51
2021/04/24 05:39:13;;;;;;;8.60;5.10;;;;;;;8.12;57.98;102536.47;6154450;28;20226;-52
2021/04/24 05:42:34;;;;;;;11.30;5.90;;;;;;;7.81;58.40;102536.47;6152517;28;20234;-53
2021/04/24 05:45:55;;;;;;;13.23;6.30;;;;;;;8.34;57.29;102544.03;6154643;28;20345;-50
2021/04/24 05:49:15;;;;;;;7.70;5.20;;;;;;;8.25;57.29;102544.66;6156493;28;20234;-50
2021/04/24 05:52:37;;;;;;;10.23;4.77;;;;;;;8.23;57.66;102535.06;6143595;28;20246;-50
2021/04/24 05:55:57;;;;;;;13.00;6.13;;;;;;;8.56;56.36;102536.88;6152910;28;20332;-53
2021/04/24 05:59:17;;;;;;;13.53;5.17;;;;;;;8.57;56.87;102526.53;6154425;28;20234;-48
2021/04/24 06:02:38;;;;;;;15.50;5.03;;;;;;;8.64;56.09;102537.94;6154198;28;20231;-49
2021/04/24 06:05:59;;;;;;;9.43;5.67;;;;;;;8.65;56.67;102524.13;6152936;28;20992;-51
2021/04/24 06:09:20;;;;;;;13.43;5.90;;;;;;;8.68;56.52;102537.19;6155350;28;20242;-52
2021/04/24 06:12:40;;;;;;;8.77;4.37;;;;;;;8.67;56.71;102531.13;6167187;28;20317;-52
2021/04/24 06:16:01;;;;;;;9.40;4.23;;;;;;;8.97;55.98;102531.84;6159742;28;20396;-51
2021/04/24 06:19:21;;;;;;;11.20;5.07;;;;;;;8.68;56.90;102529.38;6152324;28;20219;-53
2021/04/24 06:22:42;;;;;;;16.77;6.20;;;;;;;8.90;56.62;102520.44;6156522;28;20227;-48
2021/04/24 06:26:03;;;;;;;14.03;4.90;;;;;;;8.66;57.47;102526.75;6149782;28;20222;-52
2021/04/24 06:29:24;;;;;;;11.40;4.53;;;;;;;9.56;62.21;102523.72;6158839;28;21014;-52
2021/04/24 06:32:46;;;;;;;13.20;6.30;;;;;;;9.27;55.99;102521.34;6151443;28;20747;-51
2021/04/24 06:36:07;;;;;;;11.50;5.27;;;;;;;9.23;56.13;102514.31;6154610;28;20242;-51
2021/04/24 06:39:28;;;;;;;15.87;5.27;;;;;;;9.03;56.31;102522.50;6161727;28;20234;-53
2021/04/24 06:42:49;;;;;;;15.43;4.33;;;;;;;9.56;54.65;102514.19;6157789;28;20235;-53
2021/04/24 06:46:11;;;;;;;10.23;5.30;;;;;;;9.21;55.85;102511.66;6147062;28;20234;-49
2021/04/24 06:49:31;;;;;;;8.73;4.87;;;;;;;9.47;54.99;102508.78;6156715;28;20308;-50
2021/04/24 06:52:52;;;;;;;14.07;7.10;;;;;;;9.33;54.83;102515.41;6156864;28;21068;-50
2021/04/24 06:56:12;;;;;;;9.83;4.67;;;;;;;9.33;55.83;102520.59;6154175;28;20353;-48
2021/04/24 06:59:33;;;;;;;13.27;4.17;;;;;;;9.41;54.61;102524.25;6153739;28;20238;-47
2021/04/24 07:02:53;;;;;;;12.60;5.13;;;;;;;9.56;54.36;102515.94;6154977;28;20325;-49
2021/04/24 07:06:13;;;;;;;10.77;5.07;;;;;;;9.85;53.52;102524.38;6156488;28;20254;-54
2021/04/24 07:09:34;;;;;;;10.30;5.33;;;;;;;9.83;53.29;102515.66;6153471;28;20227;-49
2021/04/24 07:12:54;;;;;;;8.47;3.77;;;;;;;9.91;52.96;102521.88;6154620;28;20488;-49
2021/04/24 07:16:15;;;;;;;7.90;4.57;;;;;;;10.02;52.64;102517.78;6154585;28;20250;-49
2021/04/24 07:19:36;;;;;;;11.30;4.77;;;;;;;10.20;52.42;102519.00;6154455;28;20608;-55
2021/04/24 07:22:57;;;;;;;11.67;3.90;;;;;;;10.33;50.89;102508.00;6425800;23;20235;-50
2021/04/24 07:26:17;;;;;;;9.67;4.27;;;;;;;10.57;50.30;102530.16;6155429;28;20325;-48
2021/04/24 07:29:39;;;;;;;16.73;4.93;;;;;;;10.39;49.86;102521.13;6153935;28;20242;-54
2021/04/24 07:33:00;;;;;;;9.87;5.17;;;;;;;10.34;50.51;102517.56;6148861;28;20230;-49
2021/04/24 07:36:21;;;;;;;8.33;3.47;;;;;;;10.20;49.70;102514.66;6151988;28;20234;-52
2021/04/24 07:39:41;;;;;;;14.33;5.63;;;;;;;10.58;49.23;102516.25;6156059;28;21186;-49
2021/04/24 07:43:01;;;;;;;6.80;3.53;;;;;;;11.85;58.89;102517.34;6156031;28;20234;-47
2021/04/24 07:46:22;;;;;;;7.07;3.10;;;;;;;12.64;52.39;102521.75;6154637;28;20242;-53
2021/04/24 07:49:43;;;;;;;9.50;4.23;;;;;;;12.00;48.70;102517.56;6157999;28;20226;-50
2021/04/24 07:53:04;;;;;;;14.57;5.23;;;;;;;12.58;47.75;102527.78;6149111;28;20230;-50
2021/04/24 07:56:25;;;;;;;10.80;4.63;;;;;;;13.20;48.53;102531.81;6153121;28;20230;-51
2021/04/24 07:59:45;;;;;;;8.90;3.90;;;;;;;13.30;49.47;102527.53;6164451;28;20486;-52
2021/04/24 08:03:06;;;;;;;10.57;4.23;;;;;;;12.86;44.75;102530.66;6152488;28;20227;-54
2021/04/24 08:06:27;;;;;;;10.30;3.73;;;;;;;12.91;44.66;102539.41;6150539;28;20490;-51
2021/04/24 08:09:48;;;;;;;10.97;3.97;;;;;;;12.63;43.98;102543.50;6161057;28;20603;-47
2021/04/24 08:13:08;;;;;;;10.67;4.30;;;;;;;12.36;44.36;102529.28;6149317;28;20230;-51
2021/04/24 08:16:28;;;;;;;6.27;3.10;;;;;;;12.13;44.43;102533.38;6160579;28;20509;-50
2021/04/24 08:19:49;;;;;;;6.67;3.20;;;;;;;12.35;43.84;102532.78;6164458;28;20226;-51
2021/04/24 08:23:10;;;;;;;6.63;3.90;;;;;;;12.75;42.33;102543.59;6160489;28;20287;-53
2021/04/24 08:26:31;;;;;;;11.90;4.33;;;;;;;12.70;42.97;102542.72;6155629;28;20321;-50
2021/04/24 08:29:52;;;;;;;8.77;5.57;;;;;;;11.57;44.40;102542.19;6159087;28;20230;-52
2021/04/24 08:33:13;;;;;;;9.47;3.80;;;;;;;12.01;43.67;102550.63;6150162;28;20243;-54
2021/04/24 08:36:33;;;;;;;8.10;3.63;;;;;;;12.34;43.25;102546.69;6161842;28;20230;-53
2021/04/24 08:39:54;;;;;;;6.80;3.57;;;;;;;12.24;41.77;102551.78;6152668;28;20238;-52
2021/04/24 08:43:15;;;;;;;11.27;4.60;;;;;;;12.01;43.25;102547.16;6157747;28;20230;-53
2021/04/24 08:46:36;;;;;;;8.33;3.97;;;;;;;12.39;42.92;102552.84;6156393;28;20596;-50
2021/04/24 08:49:57;;;;;;;9.13;5.13;;;;;;;12.86;41.94;102553.31;6161209;28;20222;-52
2021/04/24 08:53:18;;;;;;;9.63;4.30;;;;;;;13.12;40.93;102546.53;6158604;28;20587;-49
2021/04/24 08:56:40;;;;;;;7.97;3.50;;;;;;;13.66;39.77;102552.19;6157078;28;20600;-50
2021/04/24 09:00:00;;;;;;;13.03;4.33;;;;;;;13.75;39.14;102551.38;6159360;28;20234;-52
2021/04/24 09:03:21;;;;;;;6.60;3.43;;;;;;;13.96;38.21;102555.84;6151173;28;20230;-53
2021/04/24 09:06:42;;;;;;;9.63;5.33;;;;;;;13.90;40.08;102555.78;6149089;28;20226;-49
2021/04/24 09:10:03;;;;;;;10.37;4.70;;;;;;;14.49;37.78;102551.66;6149941;28;20230;-52
2021/04/24 09:13:27;;;;;;;9.60;3.67;;;;;;;14.55;38.13;102552.53;6142279;28;20549;-50
2021/04/24 09:16:51;;;;;;;5.10;3.07;;;;;;;14.24;36.44;102555.94;6147378;28;20234;-53
2021/04/24 09:20:13;;;;;;;7.40;4.23;;;;;;;13.88;36.31;102553.19;6149460;28;20230;-50
2021/04/24 09:23:35;;;;;;;11.23;4.10;;;;;;;14.07;35.48;102563.72;6147125;28;20449;-52
2021/04/24 09:26:55;;;;;;;6.90;3.13;;;;;;;14.10;35.68;102556.75;6147996;28;20226;-49
2021/04/24 09:30:19;;;;;;;7.20;2.77;;;;;;;14.32;34.69;102557.69;6147238;28;20238;-48
2021/04/24 09:33:40;;;;;;;4.93;3.23;;;;;;;13.91;34.73;102562.78;6145972;28;21122;-51
2021/04/24 09:37:01;;;;;;;4.60;3.13;;;;;;;13.94;35.45;102560.19;6145229;28;20231;-50
2021/04/24 09:40:22;;;;;;;4.40;2.23;;;;;;;14.48;33.59;102553.41;6148383;28;20227;-51
2021/04/24 09:43:55;;;;;;;6.73;2.80;;;;;;;14.93;31.83;102548.25;6152156;28;20234;-51
2021/04/24 09:47:16;;;;;;;4.83;2.87;;;;;;;15.60;31.56;102551.66;6162561;28;20234;-49
2021/04/24 09:50:37;;;;;;;3.20;2.60;;;;;;;15.30;30.89;102553.47;6153648;28;20222;-56
2021/04/24 09:53:58;;;;;;;7.77;2.43;;;;;;;15.37;29.26;102549.94;6155620;28;20230;-54
2021/04/24 09:57:20;;;;;;;2.27;1.70;;;;;;;15.05;28.21;102548.22;6156664;28;20666;-51
2021/04/24 10:00:41;;;;;;;2.83;2.03;;;;;;;14.66;26.66;102547.34;6157311;28;20599;-54
2021/04/24 10:04:03;;;;;;;4.83;2.97;;;;;;;14.67;28.84;102549.06;6150840;28;20602;-49
2021/04/24 10:07:33;;;;;;;6.77;2.77;;;;;;;14.58;30.55;102546.47;6159611;28;20599;-49
2021/04/24 10:10:54;;;;;;;4.97;1.83;;;;;;;14.94;29.64;102547.34;6159840;28;20226;-53
2021/04/24 10:14:27;;;;;;;3.83;2.17;;;;;;;14.72;28.69;102549.97;6162843;28;20349;-51
2021/04/24 10:17:47;;;;;;;2.50;2.03;;;;;;;14.08;27.81;102547.16;6169291;28;20540;-51
2021/04/24 10:21:09;;;;;;;3.80;2.27;;;;;;;14.91;28.33;102550.00;6165735;28;20250;-52
2021/04/24 10:24:29;;;;;;;3.87;2.40;;;;;;;15.23;28.15;102549.09;6162471;28;20537;-50
2021/04/24 10:27:52;;;;;;;4.63;2.87;;;;;;;15.82;27.65;102545.50;6157253;28;20231;-51
2021/04/24 10:31:13;;;;;;;7.87;3.50;;;;;;;15.60;28.92;102541.16;6156845;28;20242;-55
2021/04/24 10:34:33;;;;;;;4.17;2.80;;;;;;;15.01;28.23;102536.00;6166450;28;20242;-54
2021/04/24 10:37:55;;;;;;;3.83;2.43;;;;;;;15.02;28.11;102539.47;6155952;28;20238;-55
2021/04/24 10:41:27;;;;;;;4.27;2.50;;;;;;;15.34;28.59;102540.34;6165150;28;20310;-51
2021/04/24 10:44:51;;;;;;;4.80;2.07;;;;;;;16.77;27.23;102536.22;6160316;28;20230;-54
2021/04/24 10:48:22;;;;;;;3.20;2.17;;;;;;;17.80;25.43;102537.88;6152485;28;20265;-51
2021/04/24 10:52:06;;;;;;;5.73;2.60;;;;;;;18.45;25.68;102534.41;6165452;28;20266;-51
2021/04/24 10:55:28;;;;;;;3.03;2.50;;;;;;;17.34;24.86;102522.59;6165571;28;20231;-49
2021/04/24 10:59:17;;;;;;;5.57;2.40;;;;;;;17.70;26.10;102525.72;6166417;28;20242;-52
2021/04/24 11:02:40;;;;;;;4.50;1.80;;;;;;;17.59;30.39;102527.59;6155826;28;20251;-50
2021/04/24 11:06:08;;;;;;;3.67;2.37;;;;;;;17.22;28.37;102543.78;6167481;28;20624;-52
2021/04/24 11:09:28;;;;;;;4.03;2.33;;;;;;;17.56;26.28;102535.53;6163629;28;20608;-53
2021/04/24 11:12:50;;;;;;;7.97;3.40;;;;;;;18.64;24.66;102538.50;6159378;28;20555;-51
2021/04/24 11:16:14;;;;;;;5.03;2.37;;;;;;;19.61;25.26;102533.34;6168718;28;20238;-53
2021/04/24 11:19:40;;;;;;;4.73;3.40;;;;;;;18.49;22.91;102528.19;6158636;28;20619;-53
2021/04/24 11:23:00;;;;;;;5.07;2.87;;;;;;;19.10;22.78;102528.13;6162560;28;20226;-51
2021/04/24 11:26:37;;;;;;;3.33;2.05;;;;;;;19.79;22.14;102533.00;6160477;28;20589;-47
2021/04/24 11:29:59;;;;;;;3.10;2.03;;;;;;;18.02;24.08;102532.38;6158272;28;20230;-47
2021/04/24 11:33:33;;;;;;;3.97;2.77;;;;;;;17.78;23.28;102531.75;6166182;28;20234;-51
2021/04/24 11:37:28;;;;;;;6.27;2.67;;;;;;;17.13;25.09;102548.22;6151467;28;20239;-52
2021/04/24 11:40:48;;;;;;;5.17;2.93;;;;;;;18.25;23.47;102539.97;6139439;28;20222;-51
2021/04/24 11:44:48;;;;;;;7.03;2.30;;;;;;;18.29;22.55;102526.72;6153888;28;20231;-50
2021/04/24 11:48:10;;;;;;;4.23;2.60;;;;;;;19.21;21.70;102512.94;6153342;28;20326;-49
2021/04/24 11:51:53;;;;;;;3.77;2.43;;;;;;;18.94;23.46;102520.47;6158679;28;20238;-54
2021/04/24 11:55:18;;;;;;;5.47;3.17;;;;;;;17.93;24.29;102521.94;6152257;28;20234;-48
2021/04/24 11:58:42;;;;;;;5.60;2.47;;;;;;;16.96;25.11;102528.19;6172674;28;20517;-52
2021/04/24 12:02:14;;;;;;;4.40;2.20;;;;;;;17.36;24.32;102518.16;6158971;28;20231;-51
2021/04/24 12:05:42;;;;;;;3.30;2.63;;;;;;;22.18;18.46;102511.06;6163147;28;20607;-47
2021/04/24 12:09:04;;;;;;;3.08;2.60;;;;;;;25.24;16.40;102502.34;6153075;28;20234;-50
2021/04/24 12:12:31;;;;;;;3.55;2.25;;;;;;;25.57;14.55;102501.78;6150481;28;20325;-49
2021/04/24 12:15:52;;;;;;;4.38;2.95;;;;;;;22.07;18.01;102505.22;6153203;28;20239;-52
2021/04/24 12:19:30;;;;;;;2.97;2.20;;;;;;;23.65;16.83;102505.22;6157909;28;20553;-50
2021/04/24 12:22:53;;;;;;;4.18;2.83;;;;;;;24.20;16.27;102499.56;6166657;28;20258;-51
2021/04/24 12:26:13;;;;;;;5.30;3.20;;;;;;;21.74;18.95;102506.16;6150769;28;20246;-55
2021/04/24 12:29:45;;;;;;;3.88;2.95;;;;;;;23.56;17.32;102505.53;6164256;28;20269;-50
2021/04/24 12:33:07;;;;;;;3.38;2.55;;;;;;;19.40;21.90;102509.06;6167523;28;20658;-52
2021/04/24 12:36:38;;;;;;;3.60;2.33;;;;;;;18.11;23.71;102508.53;6162557;28;20238;-53
2021/04/24 12:40:19;;;;;;;4.95;2.78;;;;;;;17.75;24.37;102507.22;6159132;28;20305;-53
2021/04/24 12:43:42;;;;;;;5.72;3.00;;;;;;;18.65;23.08;102502.44;6162501;28;20335;-54
2021/04/24 12:47:04;;;;;;;5.55;3.00;;;;;;;21.69;21.94;102494.81;6166184;28;20261;-53
2021/04/24 12:50:28;;;;;;;4.03;2.40;;;;;;;26.59;16.35;102496.94;6155853;28;20610;-52
2021/04/24 12:53:52;;;;;;;5.25;2.78;;;;;;;27.76;14.53;102485.44;6156009;28;20258;-50
2021/04/24 12:57:18;;;;;;;3.97;2.20;;;;;;;27.38;13.60;102480.41;6152561;28;20239;-50
2021/04/24 13:00:41;;;;;;;4.63;2.53;;;;;;;27.94;12.97;102491.63;6160634;28;20690;-53
2021/04/24 13:04:01;;;;;;;3.13;2.33;;;;;;;29.80;12.66;102478.66;6164451;28;20246;-52
2021/04/24 13:07:21;;;;;;;4.20;3.03;;;;;;;21.60;18.45;102489.81;6158652;28;20321;-52
2021/04/24 13:10:43;;;;;;;4.50;2.63;;;;;;;23.40;17.23;102481.31;6160511;28;20855;-53
2021/04/24 13:14:10;;;;;;;5.65;2.50;;;;;;;26.36;14.21;102469.53;6164395;28;20393;-53
2021/04/24 13:17:31;;;;;;;3.13;2.00;;;;;;;23.18;16.32;102473.25;6155063;28;20348;-54
2021/04/24 13:20:52;;;;;;;3.33;2.15;;;;;;;26.92;14.75;102456.94;6156772;28;20524;-50
2021/04/24 13:24:14;;;;;;;2.38;2.10;;;;;;;22.13;19.25;102467.88;6159530;28;20242;-53
2021/04/24 13:27:35;;;;;;;3.65;2.30;;;;;;;25.82;16.13;102463.25;6163543;28;20242;-50
2021/04/24 13:31:00;;;;;;;8.93;3.17;;;;;;;25.99;15.26;102458.00;6154201;28;20227;-52
2021/04/24 13:34:34;;;;;;;6.90;3.13;;;;;;;22.00;19.04;102462.06;6159171;28;20235;-53
2021/04/24 13:37:57;;;;;;;4.82;2.50;;;;;;;20.36;20.33;102459.47;6161082;28;20316;-51
2021/04/24 13:41:19;;;;;;;3.67;2.75;;;;;;;24.45;17.58;102446.19;6155492;28;20223;-50
2021/04/24 13:44:41;;;;;;;3.85;2.65;;;;;;;25.06;14.86;102442.69;6152709;28;20227;-55
2021/04/24 13:48:07;;;;;;;4.30;3.00;;;;;;;26.27;15.10;102443.31;6149407;28;20238;-52
2021/04/24 13:51:27;;;;;;;2.40;1.92;;;;;;;24.52;14.37;102439.72;6150083;28;20234;-53
2021/04/24 13:54:49;;;;;;;3.45;2.53;;;;;;;25.73;14.36;102438.75;6147521;28;20345;-53
2021/04/24 13:58:11;;;;;;;3.05;2.30;;;;;;;24.53;15.79;102432.56;6132097;28;20218;-54
2021/04/24 14:01:32;;;;;;;2.45;1.98;;;;;;;24.83;14.24;102430.38;6151322;28;20242;-53
2021/04/24 14:04:53;;;;;;;3.35;3.05;;;;;;;23.56;16.02;102425.78;6143509;28;20353;-52
2021/04/24 14:08:14;;;;;;;3.53;2.55;;;;;;;23.59;15.17;102422.97;6152009;28;20234;-49
2021/04/24 14:11:35;;;;;;;7.75;5.43;;;;;;;25.25;14.99;102426.75;6150071;28;20253;-51
2021/04/24 14:14:55;;;;;;;3.75;2.90;;;;;;;24.89;14.64;102408.81;6149371;28;20249;-52
2021/04/24 14:18:16;;;;;;;6.65;3.10;;;;;;;24.09;15.92;102420.13;6156002;28;20238;-51
2021/04/24 14:21:37;;;;;;;3.38;3.08;;;;;;;23.70;15.06;102415.47;6154564;28;20222;-51
2021/04/24 14:24:58;;;;;;;4.72;2.90;;;;;;;23.39;16.49;102410.47;6150651;28;20250;-53
2021/04/24 14:28:18;;;;;;;3.28;1.92;;;;;;;23.26;16.24;102409.19;6142946;28;20664;-53
2021/04/24 14:31:40;;;;;;;4.95;4.22;;;;;;;22.12;17.51;102402.44;6145250;28;20831;-54
2021/04/24 14:35:00;;;;;;;4.97;2.88;;;;;;;21.92;16.81;102400.44;6149873;28;20230;-52
2021/04/24 14:38:22;;;;;;;2.78;2.13;;;;;;;21.56;18.25;102403.34;6151697;28;20624;-53
2021/04/24 14:41:42;;;;;;;1.75;1.45;;;;;;;20.08;18.44;102399.28;6156750;28;20218;-55
2021/04/24 14:45:04;;;;;;;3.08;1.60;;;;;;;21.59;18.79;102390.84;6152044;28;20251;-54
2021/04/24 14:48:25;;;;;;;3.38;2.33;;;;;;;21.24;18.02;102382.13;6157277;28;20226;-55
2021/04/24 14:51:45;;;;;;;3.67;2.13;;;;;;;20.41;18.52;102388.78;6157391;28;20243;-52
2021/04/24 14:55:08;;;;;;;2.47;2.10;;;;;;;21.08;19.02;102390.56;6165743;28;20274;-52
2021/04/24 14:58:29;;;;;;;2.25;2.05;;;;;;;20.57;18.66;102378.66;6160899;28;20266;-54
2021/04/24 15:01:50;;;;;;;7.10;2.65;;;;;;;20.78;19.06;102377.25;6156892;28;20329;-56
2021/04/24 15:05:11;;;;;;;3.40;2.00;;;;;;;21.26;18.69;102378.56;6163558;28;20238;-56
2021/04/24 15:08:32;;;;;;;2.55;2.28;;;;;;;21.61;20.91;102380.19;6160857;28;20438;-57
2021/04/24 15:11:53;;;;;;;5.80;5.20;;;;;;;19.89;20.87;102379.47;6163358;28;20238;-55
2021/04/24 15:15:14;;;;;;;3.63;1.98;;;;;;;20.64;19.45;102370.53;6163591;28;20242;-58
2021/04/24 15:18:35;;;;;;;2.80;2.17;;;;;;;19.90;20.73;102378.56;6157954;28;20314;-58
2021/04/24 15:21:55;;;;;;;1.90;1.73;;;;;;;19.52;22.11;102383.75;6156322;28;20243;-56
2021/04/24 15:25:16;;;;;;;2.60;1.80;;;;;;;18.65;21.65;102374.03;6143052;28;20266;-56
2021/04/24 15:28:37;;;;;;;4.22;2.08;;;;;;;17.79;22.97;102380.66;6164526;28;20525;-57
2021/04/24 15:31:59;;;;;;;3.03;2.08;;;;;;;18.92;22.64;102373.56;6153890;28;20250;-54
2021/04/24 15:35:19;;;;;;;2.97;1.60;;;;;;;19.04;21.63;102379.50;6146557;28;20273;-55
2021/04/24 15:38:40;;;;;;;4.50;2.60;;;;;;;16.32;24.94;102386.69;6148917;28;20239;-56
2021/04/24 15:42:01;;;;;;;3.70;1.70;;;;;;;17.74;24.72;102374.59;6151592;28;20262;-54